createdAt,value
2022-10-07T00:00:53.763Z,12.49
2022-10-07T00:03:55.940Z,12.60
2022-10-07T00:06:57.964Z,12.74
2022-10-07T00:10:00.188Z,12.69
2022-10-07T00:13:02.633Z,12.45
2022-10-07T00:16:17.373Z,12.46
2022-10-07T00:19:20.057Z,12.55
2022-10-07T00:22:22.052Z,12.58
2022-10-07T00:25:24.185Z,12.48
2022-10-07T00:28:26.245Z,12.56
2022-10-07T00:31:31.232Z,12.56
2022-10-07T00:34:33.111Z,12.55
2022-10-07T00:37:36.241Z,12.49
2022-10-07T00:41:04.789Z,12.46
2022-10-07T00:44:34.750Z,12.39
2022-10-07T00:47:36.810Z,12.41
2022-10-07T00:50:38.791Z,12.32
2022-10-07T00:53:42.069Z,12.30
2022-10-07T00:56:46.512Z,12.06
2022-10-07T00:59:48.515Z,12.19
2022-10-07T01:02:51.669Z,12.18
2022-10-07T01:05:53.471Z,12.21
2022-10-07T01:08:55.578Z,12.12
2022-10-07T01:12:11.117Z,12.15
2022-10-07T01:15:32.545Z,12.10
2022-10-07T01:18:44.657Z,12.12
2022-10-07T01:22:19.947Z,12.05
2022-10-07T01:25:32.208Z,12.01
2022-10-07T01:28:55.231Z,11.94
2022-10-07T01:32:04.954Z,11.91
2022-10-07T01:35:12.998Z,12.05
2022-10-07T01:38:19.837Z,12.06
2022-10-07T01:41:23.777Z,11.95
2022-10-07T01:44:29.826Z,12.14
2022-10-07T01:47:33.550Z,12.01
2022-10-07T01:50:37.450Z,11.93
2022-10-07T01:54:10.571Z,11.83
2022-10-07T01:57:29.763Z,11.85
2022-10-07T02:00:38.480Z,12.02
2022-10-07T02:04:03.003Z,11.99
2022-10-07T02:07:17.861Z,12.00
2022-10-07T02:10:28.483Z,12.03
2022-10-07T02:14:07.318Z,12.03
2022-10-07T02:17:18.931Z,12.03
2022-10-07T02:20:25.432Z,12.05
2022-10-07T02:23:28.946Z,11.80
2022-10-07T02:26:34.290Z,11.82
2022-10-07T02:29:40.059Z,11.52
2022-10-07T02:32:48.258Z,11.86
2022-10-07T02:36:10.698Z,11.54
2022-10-07T02:39:15.548Z,11.53
2022-10-07T02:42:43.378Z,11.77
2022-10-07T02:46:07.440Z,11.77
2022-10-07T02:49:13.450Z,11.84
2022-10-07T02:52:19.266Z,11.94
2022-10-07T02:55:27.897Z,11.93
2022-10-07T02:58:29.934Z,11.85
2022-10-07T03:01:45.351Z,11.91
2022-10-07T03:04:49.042Z,11.90
2022-10-07T03:08:11.320Z,11.74
2022-10-07T03:11:16.170Z,11.76
2022-10-07T03:14:19.089Z,11.88
2022-10-07T03:17:21.777Z,11.75
2022-10-07T03:20:24.951Z,11.85
2022-10-07T03:23:31.376Z,11.77
2022-10-07T03:26:34.376Z,11.59
2022-10-07T03:29:36.858Z,11.57
2022-10-07T03:32:41.430Z,11.65
2022-10-07T03:35:45.076Z,11.66
2022-10-07T03:38:48.222Z,11.60
2022-10-07T03:41:51.533Z,11.66
2022-10-07T03:44:53.559Z,11.67
2022-10-07T03:47:56.670Z,11.68
2022-10-07T03:50:59.330Z,11.59
2022-10-07T03:54:03.823Z,11.60
2022-10-07T03:57:27.578Z,11.56
2022-10-07T04:00:31.019Z,11.62
2022-10-07T04:03:33.782Z,11.49
2022-10-07T04:06:35.940Z,11.51
2022-10-07T04:09:41.408Z,11.55
2022-10-07T04:12:47.404Z,11.45
2022-10-07T04:15:51.568Z,11.53
2022-10-07T04:18:58.855Z,11.61
2022-10-07T04:22:08.327Z,11.52
2022-10-07T04:25:31.134Z,11.65
2022-10-07T04:28:34.152Z,11.56
2022-10-07T04:31:43.820Z,11.61
2022-10-07T04:34:45.891Z,11.72
2022-10-07T04:37:54.197Z,11.63
2022-10-07T04:41:02.576Z,11.66
2022-10-07T04:44:04.453Z,11.59
2022-10-07T04:47:11.928Z,11.43
2022-10-07T04:50:14.366Z,11.61
2022-10-07T04:53:16.915Z,11.57
2022-10-07T04:56:21.765Z,11.53
2022-10-07T04:59:27.953Z,11.53
2022-10-07T05:02:31.976Z,11.41
2022-10-07T05:05:34.598Z,11.42
2022-10-07T05:08:36.972Z,11.43
2022-10-07T05:11:40.384Z,11.38
2022-10-07T05:14:48.144Z,11.45
2022-10-07T05:17:53.029Z,11.48
2022-10-07T05:20:56.007Z,11.56
2022-10-07T05:24:00.226Z,11.39
2022-10-07T05:27:15.740Z,11.49
2022-10-07T05:30:19.203Z,11.51
2022-10-07T05:33:21.194Z,11.68
2022-10-07T05:36:25.096Z,11.65
2022-10-07T05:39:30.087Z,11.65
2022-10-07T05:42:49.149Z,11.62
2022-10-07T05:46:01.575Z,11.63
2022-10-07T05:49:06.314Z,11.66
2022-10-07T05:52:10.498Z,11.72
2022-10-07T05:55:13.547Z,11.35
2022-10-07T05:58:15.786Z,11.37
2022-10-07T06:01:19.926Z,11.40
2022-10-07T06:04:22.342Z,11.28
2022-10-07T06:07:29.324Z,11.19
2022-10-07T06:10:56.695Z,11.33
2022-10-07T06:14:01.588Z,11.56
2022-10-07T06:17:06.100Z,11.26
2022-10-07T06:20:15.615Z,11.73
2022-10-07T06:23:23.893Z,11.61
2022-10-07T06:26:26.346Z,11.36
2022-10-07T06:29:34.924Z,11.54
2022-10-07T06:32:37.283Z,11.78
2022-10-07T06:35:39.843Z,11.90
2022-10-07T06:38:46.469Z,11.93
2022-10-07T06:41:48.894Z,12.09
2022-10-07T06:45:00.418Z,12.14
2022-10-07T06:48:02.747Z,12.23
2022-10-07T06:51:06.122Z,12.24
2022-10-07T06:54:13.007Z,12.18
2022-10-07T06:57:43.592Z,12.29
2022-10-07T07:00:39.463Z,12.44
2022-10-07T07:03:42.414Z,12.69
2022-10-07T07:06:44.977Z,12.81
2022-10-07T07:09:46.964Z,12.85
2022-10-07T07:12:49.029Z,12.81
2022-10-07T07:15:57.435Z,12.88
2022-10-07T07:19:03.312Z,12.90
2022-10-07T07:22:06.084Z,13.14
2022-10-07T07:25:10.104Z,13.51
2022-10-07T07:28:15.647Z,13.79
2022-10-07T07:31:18.430Z,13.80
2022-10-07T07:34:21.698Z,13.82
2022-10-07T07:37:24.913Z,14.05
2022-10-07T07:40:29.923Z,14.24
2022-10-07T07:43:36.144Z,14.13
2022-10-07T07:46:43.458Z,14.06
2022-10-07T07:49:46.352Z,14.08
2022-10-07T07:52:57.482Z,14.03
2022-10-07T07:56:02.543Z,14.16
2022-10-07T07:59:08.212Z,14.36
2022-10-07T08:02:12.706Z,14.58
2022-10-07T08:05:23.876Z,14.84
2022-10-07T08:08:31.221Z,14.98
2022-10-07T08:11:33.951Z,14.91
2022-10-07T08:14:38.372Z,15.40
2022-10-07T08:17:41.188Z,15.30
2022-10-07T08:20:43.412Z,15.44
2022-10-07T08:23:48.594Z,15.76
2022-10-07T08:26:56.393Z,15.82
2022-10-07T08:29:58.669Z,16.03
2022-10-07T08:33:01.618Z,15.96
2022-10-07T08:36:05.304Z,15.84
2022-10-07T08:39:07.539Z,16.09
2022-10-07T08:42:18.600Z,16.43
2022-10-07T08:45:31.922Z,16.45
2022-10-07T08:48:38.969Z,16.71
2022-10-07T08:51:50.772Z,16.52
2022-10-07T08:54:53.069Z,16.57
2022-10-07T08:58:04.531Z,16.70
2022-10-07T09:01:28.145Z,17.16
2022-10-07T09:05:15.500Z,17.39
2022-10-07T09:08:33.001Z,17.26
2022-10-07T09:11:36.144Z,17.07
2022-10-07T09:14:42.106Z,17.50
2022-10-07T09:17:54.491Z,17.61
2022-10-07T09:20:56.764Z,17.38
2022-10-07T09:24:23.604Z,17.51
2022-10-07T09:27:26.942Z,17.47
2022-10-07T09:30:29.585Z,17.87
2022-10-07T09:33:41.847Z,18.10
2022-10-07T09:37:09.801Z,17.88
2022-10-07T09:41:02.240Z,18.10
2022-10-07T09:44:03.929Z,18.23
2022-10-07T09:47:24.433Z,18.20
2022-10-07T09:50:31.411Z,18.07
2022-10-07T09:53:33.997Z,18.15
2022-10-07T09:56:45.765Z,18.55
2022-10-07T09:59:47.584Z,19.15
2022-10-07T10:03:06.299Z,18.99
2022-10-07T10:06:10.552Z,19.23
2022-10-07T10:09:18.127Z,19.05
2022-10-07T10:12:24.237Z,18.93
2022-10-07T10:15:39.543Z,19.13
2022-10-07T10:18:53.293Z,19.16
2022-10-07T10:21:57.747Z,19.15
2022-10-07T10:25:18.142Z,19.13
2022-10-07T10:28:39.304Z,19.24
2022-10-07T10:32:02.095Z,19.26
2022-10-07T10:35:16.353Z,19.18
2022-10-07T10:38:33.681Z,18.81
2022-10-07T10:41:50.746Z,18.41
2022-10-07T10:44:52.438Z,18.63
2022-10-07T10:48:03.190Z,18.32
2022-10-07T10:51:14.253Z,18.01
2022-10-07T10:54:55.488Z,18.42
2022-10-07T10:58:14.003Z,18.71
2022-10-07T11:01:24.016Z,18.78
2022-10-07T11:04:41.297Z,18.92
2022-10-07T11:07:52.400Z,19.33
2022-10-07T11:10:54.079Z,19.45
2022-10-07T11:14:04.835Z,19.52
2022-10-07T11:17:09.473Z,19.51
2022-10-07T11:20:20.125Z,19.46
2022-10-07T11:23:27.713Z,19.35
2022-10-07T11:26:36.300Z,19.17
2022-10-07T11:29:49.404Z,19.48
2022-10-07T11:32:57.324Z,19.75
2022-10-07T11:36:13.834Z,19.78
2022-10-07T11:39:15.801Z,20.40
2022-10-07T11:42:24.807Z,20.34
2022-10-07T11:45:33.980Z,19.94
2022-10-07T11:48:54.632Z,20.47
2022-10-07T11:52:02.053Z,20.63
2022-10-07T11:55:09.521Z,20.32
2022-10-07T11:58:27.041Z,20.04
2022-10-07T12:01:29.419Z,20.46
2022-10-07T12:04:31.258Z,20.45
2022-10-07T12:07:33.258Z,20.49
2022-10-07T12:10:35.738Z,20.58
2022-10-07T12:13:42.512Z,21.03
2022-10-07T12:16:55.247Z,20.78
2022-10-07T12:20:37.209Z,20.93
2022-10-07T12:23:40.729Z,21.43
2022-10-07T12:27:07.298Z,21.24
2022-10-07T12:30:49.164Z,21.38
2022-10-07T12:34:06.191Z,21.63
2022-10-07T12:37:43.421Z,20.61
2022-10-07T12:40:58.164Z,20.70
2022-10-07T12:44:06.276Z,20.51
2022-10-07T12:47:29.727Z,20.47
2022-10-07T12:50:33.677Z,20.24
2022-10-07T12:53:41.686Z,20.82
2022-10-07T12:56:44.822Z,20.77
2022-10-07T13:00:11.421Z,20.81
2022-10-07T13:03:28.633Z,21.05
2022-10-07T13:06:49.012Z,21.17
2022-10-07T13:10:09.296Z,21.49
2022-10-07T13:13:25.205Z,21.22
2022-10-07T13:16:27.441Z,21.58
2022-10-07T13:19:58.949Z,21.84
2022-10-07T13:23:23.208Z,21.49
2022-10-07T13:26:28.179Z,21.21
2022-10-07T13:29:35.581Z,21.60
2022-10-07T13:32:37.406Z,21.77
2022-10-07T13:35:39.941Z,21.66
2022-10-07T13:38:43.227Z,21.34
2022-10-07T13:41:50.751Z,21.00
2022-10-07T13:44:52.570Z,21.01
2022-10-07T13:47:56.125Z,21.22
2022-10-07T13:50:59.500Z,21.03
2022-10-07T13:54:05.739Z,21.27
2022-10-07T13:57:12.589Z,21.92
2022-10-07T14:00:16.398Z,21.51
2022-10-07T14:03:18.913Z,21.32
2022-10-07T14:06:37.950Z,21.67
2022-10-07T14:09:59.057Z,21.43
2022-10-07T14:13:07.365Z,21.51
2022-10-07T14:16:22.368Z,22.15
2022-10-07T14:19:24.175Z,22.27
2022-10-07T14:22:50.436Z,22.72
2022-10-07T14:25:55.024Z,22.86
2022-10-07T14:28:56.871Z,22.58
2022-10-07T14:32:38.481Z,22.53
2022-10-07T14:35:40.928Z,22.68
2022-10-07T14:38:44.566Z,22.44
2022-10-07T14:41:47.147Z,22.57
2022-10-07T14:44:49.982Z,21.94
2022-10-07T14:47:51.766Z,22.35
2022-10-07T14:50:53.597Z,22.77
2022-10-07T14:54:03.984Z,23.05
2022-10-07T14:57:06.155Z,23.36
2022-10-07T15:00:17.605Z,22.29
2022-10-07T15:03:19.385Z,22.43
2022-10-07T15:06:21.608Z,22.41
2022-10-07T15:09:23.608Z,22.28
2022-10-07T15:12:26.302Z,22.45
2022-10-07T15:15:29.070Z,22.56
2022-10-07T15:18:30.776Z,21.99
2022-10-07T15:21:32.599Z,22.13
2022-10-07T15:24:34.405Z,22.04
2022-10-07T15:27:37.885Z,22.18
2022-10-07T15:30:39.812Z,21.90
2022-10-07T15:33:42.690Z,22.02
2022-10-07T15:36:45.338Z,22.00
2022-10-07T15:39:47.049Z,21.43
2022-10-07T15:42:48.999Z,21.79
2022-10-07T15:45:51.668Z,21.55
2022-10-07T15:48:58.648Z,21.12
2022-10-07T15:52:01.560Z,21.04
2022-10-07T15:55:08.349Z,21.01
2022-10-07T15:58:10.094Z,20.86
2022-10-07T16:01:12.891Z,20.95
2022-10-07T16:04:15.262Z,20.55
2022-10-07T16:07:16.965Z,20.31
2022-10-07T16:10:18.919Z,19.86
2022-10-07T16:13:23.152Z,19.55
2022-10-07T16:16:27.061Z,19.30
2022-10-07T16:19:28.692Z,18.85
2022-10-07T16:22:31.207Z,18.84
2022-10-07T16:25:35.430Z,18.72
2022-10-07T16:29:07.194Z,18.72
2022-10-07T16:32:11.329Z,18.72
2022-10-07T16:35:13.164Z,18.74
2022-10-07T16:38:15.487Z,18.63
2022-10-07T16:41:18.395Z,18.53
2022-10-07T16:44:21.013Z,18.28
2022-10-07T16:47:22.928Z,17.91
2022-10-07T16:50:24.662Z,17.73
2022-10-07T16:53:27.250Z,17.45
2022-10-07T16:56:33.889Z,17.43
2022-10-07T16:59:35.576Z,17.28
2022-10-07T17:02:37.237Z,17.22
2022-10-07T17:05:39.442Z,17.02
2022-10-07T17:08:47.450Z,17.14
2022-10-07T17:11:49.950Z,17.08
2022-10-07T17:14:51.816Z,16.89
2022-10-07T17:17:53.759Z,16.96
2022-10-07T17:20:56.424Z,16.89
2022-10-07T17:23:58.312Z,16.80
2022-10-07T17:26:59.919Z,16.88
2022-10-07T17:30:02.750Z,16.92
2022-10-07T17:33:05.269Z,16.88
2022-10-07T17:36:08.701Z,16.85
2022-10-07T17:39:11.574Z,16.83
2022-10-07T17:42:13.185Z,16.85
2022-10-07T17:45:14.849Z,16.97
2022-10-07T17:48:16.665Z,16.89
2022-10-07T17:51:20.517Z,16.84
2022-10-07T17:54:23.975Z,16.53
2022-10-07T17:57:25.872Z,16.24
2022-10-07T18:00:28.057Z,16.30
2022-10-07T18:03:30.228Z,16.15
2022-10-07T18:06:34.499Z,16.23
2022-10-07T18:09:36.491Z,16.23
2022-10-07T18:12:56.976Z,16.12
2022-10-07T18:16:00.193Z,16.15
2022-10-07T18:19:02.452Z,16.04
2022-10-07T18:22:04.252Z,16.20
2022-10-07T18:25:06.861Z,16.21
2022-10-07T18:28:08.601Z,16.04
2022-10-07T18:31:12.402Z,15.94
2022-10-07T18:34:14.598Z,15.91
2022-10-07T18:37:17.028Z,15.87
2022-10-07T18:40:18.787Z,15.85
2022-10-07T18:43:20.976Z,15.74
2022-10-07T18:46:23.519Z,15.86
2022-10-07T18:49:25.510Z,15.90
2022-10-07T18:52:27.388Z,15.67
2022-10-07T18:55:33.446Z,15.56
2022-10-07T18:58:58.411Z,15.75
2022-10-07T19:02:03.874Z,15.50
2022-10-07T19:05:08.969Z,15.63
2022-10-07T19:08:10.871Z,15.47
2022-10-07T19:11:18.543Z,15.49
2022-10-07T19:14:20.922Z,15.59
2022-10-07T19:17:23.169Z,15.59
2022-10-07T19:20:25.177Z,15.54
2022-10-07T19:23:29.127Z,15.72
2022-10-07T19:26:36.128Z,15.68
2022-10-07T19:29:38.082Z,15.64
2022-10-07T19:32:39.994Z,15.44
2022-10-07T19:35:42.014Z,15.55
2022-10-07T19:38:45.882Z,15.53
2022-10-07T19:41:48.454Z,15.52
2022-10-07T19:44:50.339Z,15.49
2022-10-07T19:47:52.065Z,15.32
2022-10-07T19:50:58.042Z,15.26
2022-10-07T19:54:02.236Z,15.16
2022-10-07T19:57:04.247Z,15.30
2022-10-07T20:00:06.586Z,15.12
2022-10-07T20:03:14.189Z,15.21
2022-10-07T20:06:16.561Z,15.22
2022-10-07T20:09:20.309Z,15.17
2022-10-07T20:12:22.436Z,15.01
2022-10-07T20:15:24.150Z,15.26
2022-10-07T20:18:25.911Z,15.22
2022-10-07T20:21:28.916Z,15.19
2022-10-07T20:24:30.957Z,15.19
2022-10-07T20:27:34.175Z,15.46
2022-10-07T20:30:35.986Z,15.03
2022-10-07T20:33:42.595Z,15.16
2022-10-07T20:36:50.590Z,15.23
2022-10-07T20:40:11.067Z,15.28
2022-10-07T20:43:13.058Z,15.51
2022-10-07T20:46:14.794Z,15.39
2022-10-07T20:49:23.120Z,15.40
2022-10-07T20:52:27.153Z,15.33
2022-10-07T20:55:30.986Z,15.30
2022-10-07T20:58:37.517Z,15.20
2022-10-07T21:01:41.124Z,15.25
2022-10-07T21:04:43.508Z,15.21
2022-10-07T21:07:45.479Z,15.13
2022-10-07T21:10:48.759Z,15.20
2022-10-07T21:13:50.396Z,15.11
2022-10-07T21:16:53.670Z,15.06
2022-10-07T21:19:55.979Z,15.10
2022-10-07T21:22:58.244Z,14.96
2022-10-07T21:26:01.754Z,14.98
2022-10-07T21:29:05.115Z,15.01
2022-10-07T21:32:07.004Z,15.04
2022-10-07T21:35:10.209Z,15.12
2022-10-07T21:38:14.515Z,15.34
2022-10-07T21:41:20.651Z,15.26
2022-10-07T21:44:22.347Z,15.15
2022-10-07T21:47:24.527Z,14.93
2022-10-07T21:50:27.573Z,14.96
2022-10-07T21:53:30.510Z,14.82
2022-10-07T21:56:34.535Z,14.99
2022-10-07T21:59:36.728Z,15.03
2022-10-07T22:02:39.142Z,14.99
2022-10-07T22:05:41.219Z,14.99
2022-10-07T22:08:45.301Z,14.97
2022-10-07T22:11:47.604Z,14.85
2022-10-07T22:14:49.378Z,14.89
2022-10-07T22:17:51.252Z,14.82
2022-10-07T22:20:52.960Z,14.78
2022-10-07T22:23:59.703Z,14.86
2022-10-07T22:27:03.653Z,14.88
2022-10-07T22:30:06.963Z,14.84
2022-10-07T22:33:11.181Z,14.77
2022-10-07T22:36:16.450Z,14.82
2022-10-07T22:39:18.384Z,14.93
2022-10-07T22:42:20.188Z,14.92
2022-10-07T22:45:21.980Z,14.91
2022-10-07T22:48:24.819Z,14.93
2022-10-07T22:51:29.767Z,14.96
2022-10-07T22:54:31.494Z,14.89
2022-10-07T22:57:33.514Z,14.81
2022-10-07T23:00:35.378Z,14.74
2022-10-07T23:03:39.482Z,14.75
2022-10-07T23:06:41.396Z,14.75
2022-10-07T23:09:43.505Z,14.68
2022-10-07T23:12:45.499Z,14.90
2022-10-07T23:15:58.955Z,15.00
2022-10-07T23:19:00.977Z,15.07
2022-10-07T23:22:02.702Z,15.06
2022-10-07T23:25:04.854Z,15.28
2022-10-07T23:28:06.835Z,15.29
2022-10-07T23:31:11.103Z,15.24
2022-10-07T23:34:14.082Z,15.19
2022-10-07T23:37:15.664Z,15.26
2022-10-07T23:40:17.265Z,15.23
2022-10-07T23:43:19.033Z,15.18
2022-10-07T23:46:22.668Z,15.12
2022-10-07T23:49:24.816Z,15.05
2022-10-07T23:52:26.475Z,14.99
2022-10-07T23:55:28.598Z,15.11
2022-10-07T23:58:31.875Z,15.11
